sensor_id;sensor_type;location;lat;lon;timestamp;P1;durP1;ratioP1;P2;durP2;ratioP2
22429;SDS011;11382;48.086;11.632;2023-02-01T00:00:38;5.00;;;3.35;;
22429;SDS011;11382;48.086;11.632;2023-02-01T00:03:06;6.22;;;3.22;;
22429;SDS011;11382;48.086;11.632;2023-02-01T00:05:36;5.60;;;3.25;;
22429;SDS011;11382;48.086;11.632;2023-02-01T00:08:04;4.07;;;2.65;;
22429;SDS011;11382;48.086;11.632;2023-02-01T00:10:32;5.22;;;2.65;;
22429;SDS011;11382;48.086;11.632;2023-02-01T00:12:59;4.45;;;2.72;;
22429;SDS011;11382;48.086;11.632;2023-02-01T00:15:27;4.30;;;2.70;;
22429;SDS011;11382;48.086;11.632;2023-02-01T00:17:55;3.90;;;2.47;;
22429;SDS011;11382;48.086;11.632;2023-02-01T00:20:23;4.28;;;2.70;;
22429;SDS011;11382;48.086;11.632;2023-02-01T00:22:52;4.00;;;2.47;;
22429;SDS011;11382;48.086;11.632;2023-02-01T00:25:20;3.45;;;2.45;;
22429;SDS011;11382;48.086;11.632;2023-02-01T00:27:48;3.58;;;2.60;;
22429;SDS011;11382;48.086;11.632;2023-02-01T00:30:17;4.97;;;2.50;;
22429;SDS011;11382;48.086;11.632;2023-02-01T00:32:45;4.43;;;2.35;;
22429;SDS011;11382;48.086;11.632;2023-02-01T00:35:13;4.28;;;2.60;;
22429;SDS011;11382;48.086;11.632;2023-02-01T00:37:41;8.77;;;2.60;;
22429;SDS011;11382;48.086;11.632;2023-02-01T00:40:11;5.03;;;2.60;;
22429;SDS011;11382;48.086;11.632;2023-02-01T00:42:39;5.07;;;2.70;;
22429;SDS011;11382;48.086;11.632;2023-02-01T00:45:08;4.40;;;2.67;;
22429;SDS011;11382;48.086;11.632;2023-02-01T00:47:36;3.17;;;2.40;;
22429;SDS011;11382;48.086;11.632;2023-02-01T00:50:04;3.53;;;2.50;;
22429;SDS011;11382;48.086;11.632;2023-02-01T00:52:33;4.00;;;2.22;;
22429;SDS011;11382;48.086;11.632;2023-02-01T00:55:00;6.07;;;2.80;;
22429;SDS011;11382;48.086;11.632;2023-02-01T00:57:30;6.07;;;3.05;;
22429;SDS011;11382;48.086;11.632;2023-02-01T00:59:58;5.20;;;2.88;;
22429;SDS011;11382;48.086;11.632;2023-02-01T01:02:26;3.42;;;2.50;;
22429;SDS011;11382;48.086;11.632;2023-02-01T01:04:54;3.85;;;2.80;;
22429;SDS011;11382;48.086;11.632;2023-02-01T01:07:22;4.43;;;2.83;;
22429;SDS011;11382;48.086;11.632;2023-02-01T01:09:50;4.93;;;2.60;;
22429;SDS011;11382;48.086;11.632;2023-02-01T01:12:18;4.65;;;3.28;;
22429;SDS011;11382;48.086;11.632;2023-02-01T01:14:47;6.15;;;3.38;;
22429;SDS011;11382;48.086;11.632;2023-02-01T01:17:15;4.50;;;3.03;;
22429;SDS011;11382;48.086;11.632;2023-02-01T01:19:43;6.50;;;2.88;;
22429;SDS011;11382;48.086;11.632;2023-02-01T01:22:11;5.78;;;2.95;;
22429;SDS011;11382;48.086;11.632;2023-02-01T01:24:39;4.57;;;2.95;;
22429;SDS011;11382;48.086;11.632;2023-02-01T01:27:07;4.75;;;3.17;;
22429;SDS011;11382;48.086;11.632;2023-02-01T01:29:35;5.07;;;2.83;;
22429;SDS011;11382;48.086;11.632;2023-02-01T01:32:05;7.43;;;3.20;;
22429;SDS011;11382;48.086;11.632;2023-02-01T01:34:32;8.55;;;3.83;;
22429;SDS011;11382;48.086;11.632;2023-02-01T01:37:00;5.72;;;3.55;;
22429;SDS011;11382;48.086;11.632;2023-02-01T01:39:29;5.70;;;3.63;;
22429;SDS011;11382;48.086;11.632;2023-02-01T01:41:57;5.65;;;4.05;;
22429;SDS011;11382;48.086;11.632;2023-02-01T01:47:27;7.50;;;3.90;;
22429;SDS011;11382;48.086;11.632;2023-02-01T01:49:59;6.85;;;4.65;;
22429;SDS011;11382;48.086;11.632;2023-02-01T01:52:28;6.00;;;4.10;;
22429;SDS011;11382;48.086;11.632;2023-02-01T01:54:56;9.95;;;4.88;;
22429;SDS011;11382;48.086;11.632;2023-02-01T01:57:26;5.53;;;3.65;;
22429;SDS011;11382;48.086;11.632;2023-02-01T01:59:59;7.18;;;4.20;;
22429;SDS011;11382;48.086;11.632;2023-02-01T02:02:40;6.53;;;4.47;;
22429;SDS011;11382;48.086;11.632;2023-02-01T02:05:10;7.85;;;4.38;;
22429;SDS011;11382;48.086;11.632;2023-02-01T02:07:40;10.70;;;5.15;;
22429;SDS011;11382;48.086;11.632;2023-02-01T02:10:12;8.02;;;5.22;;
22429;SDS011;11382;48.086;11.632;2023-02-01T02:12:43;7.20;;;4.47;;
22429;SDS011;11382;48.086;11.632;2023-02-01T02:15:14;8.63;;;4.43;;
22429;SDS011;11382;48.086;11.632;2023-02-01T02:17:46;7.07;;;4.00;;
22429;SDS011;11382;48.086;11.632;2023-02-01T02:23:38;8.77;;;4.53;;
22429;SDS011;11382;48.086;11.632;2023-02-01T02:26:33;8.27;;;4.60;;
22429;SDS011;11382;48.086;11.632;2023-02-01T02:29:11;7.60;;;4.38;;
22429;SDS011;11382;48.086;11.632;2023-02-01T02:35:16;7.80;;;4.60;;
22429;SDS011;11382;48.086;11.632;2023-02-01T02:37:55;8.05;;;4.40;;
22429;SDS011;11382;48.086;11.632;2023-02-01T02:40:33;7.68;;;4.47;;
22429;SDS011;11382;48.086;11.632;2023-02-01T02:43:09;6.78;;;4.03;;
22429;SDS011;11382;48.086;11.632;2023-02-01T02:46:01;8.30;;;3.90;;
22429;SDS011;11382;48.086;11.632;2023-02-01T02:48:51;7.85;;;5.07;;
22429;SDS011;11382;48.086;11.632;2023-02-01T02:51:27;8.20;;;4.22;;
22429;SDS011;11382;48.086;11.632;2023-02-01T02:54:17;7.10;;;4.55;;
22429;SDS011;11382;48.086;11.632;2023-02-01T02:57:07;7.88;;;4.78;;
22429;SDS011;11382;48.086;11.632;2023-02-01T02:59:58;7.15;;;3.80;;
22429;SDS011;11382;48.086;11.632;2023-02-01T03:02:46;6.47;;;4.00;;
22429;SDS011;11382;48.086;11.632;2023-02-01T03:05:33;5.88;;;4.20;;
22429;SDS011;11382;48.086;11.632;2023-02-01T03:08:04;9.27;;;5.10;;
22429;SDS011;11382;48.086;11.632;2023-02-01T03:13:26;6.07;;;3.75;;
22429;SDS011;11382;48.086;11.632;2023-02-01T03:16:00;8.55;;;4.68;;
22429;SDS011;11382;48.086;11.632;2023-02-01T03:18:35;9.15;;;5.05;;
22429;SDS011;11382;48.086;11.632;2023-02-01T03:21:10;9.98;;;4.15;;
22429;SDS011;11382;48.086;11.632;2023-02-01T03:23:42;8.15;;;4.30;;
22429;SDS011;11382;48.086;11.632;2023-02-01T03:26:13;8.73;;;3.75;;
22429;SDS011;11382;48.086;11.632;2023-02-01T03:28:45;4.70;;;3.83;;
22429;SDS011;11382;48.086;11.632;2023-02-01T03:31:20;8.13;;;4.55;;
22429;SDS011;11382;48.086;11.632;2023-02-01T03:33:48;6.22;;;3.97;;
22429;SDS011;11382;48.086;11.632;2023-02-01T03:36:18;5.57;;;3.67;;
22429;SDS011;11382;48.086;11.632;2023-02-01T03:38:54;7.38;;;3.92;;
22429;SDS011;11382;48.086;11.632;2023-02-01T03:41:28;7.60;;;3.50;;
22429;SDS011;11382;48.086;11.632;2023-02-01T03:44:04;7.60;;;3.78;;
22429;SDS011;11382;48.086;11.632;2023-02-01T03:46:41;6.90;;;4.32;;
22429;SDS011;11382;48.086;11.632;2023-02-01T03:49:15;5.68;;;3.38;;
22429;SDS011;11382;48.086;11.632;2023-02-01T03:51:48;7.15;;;4.00;;
22429;SDS011;11382;48.086;11.632;2023-02-01T03:54:19;8.15;;;3.63;;
22429;SDS011;11382;48.086;11.632;2023-02-01T03:56:48;5.88;;;3.78;;
22429;SDS011;11382;48.086;11.632;2023-02-01T03:59:18;7.88;;;4.15;;
22429;SDS011;11382;48.086;11.632;2023-02-01T04:01:46;6.15;;;4.03;;
22429;SDS011;11382;48.086;11.632;2023-02-01T04:04:14;8.23;;;3.60;;
22429;SDS011;11382;48.086;11.632;2023-02-01T04:06:50;6.75;;;3.60;;
22429;SDS011;11382;48.086;11.632;2023-02-01T04:09:20;5.32;;;3.58;;
22429;SDS011;11382;48.086;11.632;2023-02-01T04:11:48;5.32;;;3.63;;
22429;SDS011;11382;48.086;11.632;2023-02-01T04:14:16;5.95;;;3.83;;
22429;SDS011;11382;48.086;11.632;2023-02-01T04:16:44;6.00;;;3.80;;
22429;SDS011;11382;48.086;11.632;2023-02-01T04:19:12;6.93;;;3.67;;
22429;SDS011;11382;48.086;11.632;2023-02-01T04:21:40;5.35;;;3.17;;
22429;SDS011;11382;48.086;11.632;2023-02-01T04:24:08;4.78;;;3.45;;
22429;SDS011;11382;48.086;11.632;2023-02-01T04:26:38;5.88;;;3.42;;
22429;SDS011;11382;48.086;11.632;2023-02-01T04:29:07;6.75;;;3.65;;
22429;SDS011;11382;48.086;11.632;2023-02-01T04:31:36;4.15;;;3.00;;
22429;SDS011;11382;48.086;11.632;2023-02-01T04:34:04;6.32;;;4.00;;
22429;SDS011;11382;48.086;11.632;2023-02-01T04:36:32;5.45;;;3.58;;
22429;SDS011;11382;48.086;11.632;2023-02-01T04:39:00;4.30;;;3.30;;
22429;SDS011;11382;48.086;11.632;2023-02-01T04:41:28;6.38;;;4.13;;
22429;SDS011;11382;48.086;11.632;2023-02-01T04:43:57;5.00;;;3.40;;
22429;SDS011;11382;48.086;11.632;2023-02-01T04:46:25;6.90;;;3.80;;
22429;SDS011;11382;48.086;11.632;2023-02-01T04:48:53;5.07;;;3.20;;
22429;SDS011;11382;48.086;11.632;2023-02-01T04:51:21;4.53;;;3.25;;
22429;SDS011;11382;48.086;11.632;2023-02-01T04:53:49;8.05;;;3.50;;
22429;SDS011;11382;48.086;11.632;2023-02-01T04:56:17;6.57;;;3.90;;
22429;SDS011;11382;48.086;11.632;2023-02-01T04:58:45;4.97;;;3.30;;
22429;SDS011;11382;48.086;11.632;2023-02-01T05:01:14;6.28;;;3.60;;
22429;SDS011;11382;48.086;11.632;2023-02-01T05:03:42;6.70;;;4.05;;
22429;SDS011;11382;48.086;11.632;2023-02-01T05:06:10;5.53;;;4.00;;
22429;SDS011;11382;48.086;11.632;2023-02-01T05:08:38;5.38;;;4.57;;
22429;SDS011;11382;48.086;11.632;2023-02-01T05:11:06;5.70;;;4.00;;
22429;SDS011;11382;48.086;11.632;2023-02-01T05:13:53;5.53;;;3.83;;
22429;SDS011;11382;48.086;11.632;2023-02-01T05:16:22;7.25;;;3.63;;
22429;SDS011;11382;48.086;11.632;2023-02-01T05:18:50;6.28;;;3.67;;
22429;SDS011;11382;48.086;11.632;2023-02-01T05:21:18;6.82;;;4.15;;
22429;SDS011;11382;48.086;11.632;2023-02-01T05:23:46;6.55;;;4.00;;
22429;SDS011;11382;48.086;11.632;2023-02-01T05:26:31;7.15;;;3.78;;
22429;SDS011;11382;48.086;11.632;2023-02-01T05:28:59;7.43;;;4.25;;
22429;SDS011;11382;48.086;11.632;2023-02-01T05:31:28;5.18;;;3.72;;
22429;SDS011;11382;48.086;11.632;2023-02-01T05:33:57;6.05;;;3.45;;
22429;SDS011;11382;48.086;11.632;2023-02-01T05:36:24;4.50;;;3.88;;
22429;SDS011;11382;48.086;11.632;2023-02-01T05:38:53;6.00;;;3.85;;
22429;SDS011;11382;48.086;11.632;2023-02-01T05:41:21;6.97;;;4.05;;
22429;SDS011;11382;48.086;11.632;2023-02-01T05:43:49;6.90;;;4.10;;
22429;SDS011;11382;48.086;11.632;2023-02-01T05:46:16;6.28;;;3.97;;
22429;SDS011;11382;48.086;11.632;2023-02-01T05:48:46;7.35;;;4.40;;
22429;SDS011;11382;48.086;11.632;2023-02-01T05:51:14;6.55;;;4.47;;
22429;SDS011;11382;48.086;11.632;2023-02-01T05:53:42;6.90;;;4.20;;
22429;SDS011;11382;48.086;11.632;2023-02-01T05:56:10;6.47;;;3.90;;
22429;SDS011;11382;48.086;11.632;2023-02-01T05:58:37;5.68;;;3.83;;
22429;SDS011;11382;48.086;11.632;2023-02-01T06:01:05;6.85;;;4.18;;
22429;SDS011;11382;48.086;11.632;2023-02-01T06:03:33;6.15;;;4.10;;
22429;SDS011;11382;48.086;11.632;2023-02-01T06:06:03;7.55;;;4.15;;
22429;SDS011;11382;48.086;11.632;2023-02-01T06:08:31;6.47;;;4.13;;
22429;SDS011;11382;48.086;11.632;2023-02-01T06:10:59;7.43;;;4.07;;
22429;SDS011;11382;48.086;11.632;2023-02-01T06:13:27;5.40;;;4.10;;
22429;SDS011;11382;48.086;11.632;2023-02-01T06:15:58;5.07;;;3.22;;
22429;SDS011;11382;48.086;11.632;2023-02-01T06:18:26;6.22;;;4.07;;
22429;SDS011;11382;48.086;11.632;2023-02-01T06:20:56;6.85;;;3.90;;
22429;SDS011;11382;48.086;11.632;2023-02-01T06:23:27;6.72;;;4.18;;
22429;SDS011;11382;48.086;11.632;2023-02-01T06:25:58;6.90;;;3.95;;
22429;SDS011;11382;48.086;11.632;2023-02-01T06:28:27;6.78;;;4.28;;
22429;SDS011;11382;48.086;11.632;2023-02-01T06:30:56;8.23;;;5.07;;
22429;SDS011;11382;48.086;11.632;2023-02-01T06:33:25;9.75;;;5.15;;
22429;SDS011;11382;48.086;11.632;2023-02-01T06:35:56;7.25;;;4.10;;
22429;SDS011;11382;48.086;11.632;2023-02-01T06:38:25;6.50;;;4.57;;
22429;SDS011;11382;48.086;11.632;2023-02-01T06:40:55;7.68;;;4.70;;
22429;SDS011;11382;48.086;11.632;2023-02-01T06:43:25;6.68;;;4.10;;
22429;SDS011;11382;48.086;11.632;2023-02-01T06:45:58;8.13;;;4.25;;
22429;SDS011;11382;48.086;11.632;2023-02-01T06:48:27;5.93;;;3.97;;
22429;SDS011;11382;48.086;11.632;2023-02-01T06:50:56;6.78;;;4.40;;
22429;SDS011;11382;48.086;11.632;2023-02-01T06:53:23;7.43;;;4.25;;
22429;SDS011;11382;48.086;11.632;2023-02-01T06:55:54;6.50;;;4.30;;
22429;SDS011;11382;48.086;11.632;2023-02-01T06:58:23;5.93;;;3.67;;
22429;SDS011;11382;48.086;11.632;2023-02-01T07:00:51;6.70;;;4.03;;
22429;SDS011;11382;48.086;11.632;2023-02-01T07:03:20;6.55;;;4.13;;
22429;SDS011;11382;48.086;11.632;2023-02-01T07:05:48;6.22;;;4.07;;
22429;SDS011;11382;48.086;11.632;2023-02-01T07:08:15;5.00;;;3.80;;
22429;SDS011;11382;48.086;11.632;2023-02-01T07:10:43;5.55;;;4.40;;
22429;SDS011;11382;48.086;11.632;2023-02-01T07:13:13;5.45;;;3.45;;
22429;SDS011;11382;48.086;11.632;2023-02-01T07:15:40;6.50;;;3.35;;
22429;SDS011;11382;48.086;11.632;2023-02-01T07:18:08;6.20;;;3.45;;
22429;SDS011;11382;48.086;11.632;2023-02-01T07:20:36;5.53;;;3.40;;
22429;SDS011;11382;48.086;11.632;2023-02-01T07:23:04;6.47;;;3.88;;
22429;SDS011;11382;48.086;11.632;2023-02-01T07:25:34;5.60;;;3.40;;
22429;SDS011;11382;48.086;11.632;2023-02-01T07:28:02;6.63;;;3.47;;
22429;SDS011;11382;48.086;11.632;2023-02-01T07:30:31;5.53;;;3.42;;
22429;SDS011;11382;48.086;11.632;2023-02-01T07:32:59;6.82;;;3.50;;
22429;SDS011;11382;48.086;11.632;2023-02-01T07:35:27;4.18;;;2.97;;
22429;SDS011;11382;48.086;11.632;2023-02-01T07:37:56;4.10;;;2.85;;
22429;SDS011;11382;48.086;11.632;2023-02-01T07:40:25;4.82;;;2.58;;
22429;SDS011;11382;48.086;11.632;2023-02-01T07:42:54;5.10;;;3.53;;
22429;SDS011;11382;48.086;11.632;2023-02-01T07:45:23;6.22;;;3.08;;
22429;SDS011;11382;48.086;11.632;2023-02-01T07:47:52;6.32;;;2.85;;
22429;SDS011;11382;48.086;11.632;2023-02-01T07:50:20;5.47;;;3.08;;
22429;SDS011;11382;48.086;11.632;2023-02-01T07:52:49;4.70;;;2.97;;
22429;SDS011;11382;48.086;11.632;2023-02-01T07:55:17;3.83;;;2.80;;
22429;SDS011;11382;48.086;11.632;2023-02-01T07:57:45;2.97;;;2.35;;
22429;SDS011;11382;48.086;11.632;2023-02-01T08:00:13;3.33;;;2.50;;
22429;SDS011;11382;48.086;11.632;2023-02-01T08:03:01;4.40;;;2.67;;
22429;SDS011;11382;48.086;11.632;2023-02-01T08:05:31;4.85;;;2.45;;
22429;SDS011;11382;48.086;11.632;2023-02-01T08:07:58;4.55;;;2.40;;
22429;SDS011;11382;48.086;11.632;2023-02-01T08:10:27;4.07;;;2.42;;
22429;SDS011;11382;48.086;11.632;2023-02-01T08:12:57;4.72;;;2.17;;
22429;SDS011;11382;48.086;11.632;2023-02-01T08:15:26;3.30;;;2.40;;
22429;SDS011;11382;48.086;11.632;2023-02-01T08:17:54;4.28;;;2.53;;
22429;SDS011;11382;48.086;11.632;2023-02-01T08:20:24;5.25;;;2.50;;
22429;SDS011;11382;48.086;11.632;2023-02-01T08:22:53;3.47;;;2.42;;
22429;SDS011;11382;48.086;11.632;2023-02-01T08:25:21;3.20;;;2.15;;
22429;SDS011;11382;48.086;11.632;2023-02-01T08:27:50;4.50;;;1.92;;
22429;SDS011;11382;48.086;11.632;2023-02-01T08:30:20;4.05;;;1.90;;
22429;SDS011;11382;48.086;11.632;2023-02-01T08:32:49;4.97;;;2.10;;
22429;SDS011;11382;48.086;11.632;2023-02-01T08:35:17;3.25;;;2.10;;
22429;SDS011;11382;48.086;11.632;2023-02-01T08:37:48;3.15;;;2.10;;
22429;SDS011;11382;48.086;11.632;2023-02-01T08:40:17;3.20;;;1.85;;
22429;SDS011;11382;48.086;11.632;2023-02-01T08:42:45;3.20;;;2.35;;
22429;SDS011;11382;48.086;11.632;2023-02-01T08:45:20;2.63;;;2.03;;
22429;SDS011;11382;48.086;11.632;2023-02-01T08:47:51;2.63;;;2.05;;
22429;SDS011;11382;48.086;11.632;2023-02-01T08:50:19;4.57;;;2.50;;
22429;SDS011;11382;48.086;11.632;2023-02-01T08:52:50;3.53;;;2.22;;
22429;SDS011;11382;48.086;11.632;2023-02-01T08:55:18;3.85;;;2.40;;
22429;SDS011;11382;48.086;11.632;2023-02-01T08:57:46;3.20;;;2.00;;
22429;SDS011;11382;48.086;11.632;2023-02-01T09:00:16;6.65;;;2.05;;
22429;SDS011;11382;48.086;11.632;2023-02-01T09:02:44;3.47;;;2.22;;
22429;SDS011;11382;48.086;11.632;2023-02-01T09:05:12;2.92;;;1.90;;
22429;SDS011;11382;48.086;11.632;2023-02-01T09:07:42;4.35;;;2.35;;
22429;SDS011;11382;48.086;11.632;2023-02-01T09:10:12;3.00;;;2.05;;
22429;SDS011;11382;48.086;11.632;2023-02-01T09:12:44;4.20;;;2.47;;
22429;SDS011;11382;48.086;11.632;2023-02-01T09:15:12;2.92;;;2.10;;
22429;SDS011;11382;48.086;11.632;2023-02-01T09:17:39;3.55;;;2.38;;
22429;SDS011;11382;48.086;11.632;2023-02-01T09:20:10;5.60;;;2.30;;
22429;SDS011;11382;48.086;11.632;2023-02-01T09:22:38;3.10;;;2.22;;
22429;SDS011;11382;48.086;11.632;2023-02-01T09:25:07;2.15;;;1.95;;
22429;SDS011;11382;48.086;11.632;2023-02-01T09:27:37;4.47;;;2.33;;
22429;SDS011;11382;48.086;11.632;2023-02-01T09:30:05;3.72;;;2.13;;
22429;SDS011;11382;48.086;11.632;2023-02-01T09:32:34;2.97;;;2.10;;
22429;SDS011;11382;48.086;11.632;2023-02-01T09:35:03;2.88;;;1.88;;
22429;SDS011;11382;48.086;11.632;2023-02-01T09:37:31;2.90;;;2.03;;
22429;SDS011;11382;48.086;11.632;2023-02-01T09:39:59;3.08;;;2.20;;
22429;SDS011;11382;48.086;11.632;2023-02-01T09:42:35;3.05;;;2.03;;
22429;SDS011;11382;48.086;11.632;2023-02-01T09:45:20;3.63;;;1.80;;
22429;SDS011;11382;48.086;11.632;2023-02-01T09:47:54;3.55;;;2.30;;
22429;SDS011;11382;48.086;11.632;2023-02-01T09:50:28;2.60;;;2.20;;
22429;SDS011;11382;48.086;11.632;2023-02-01T09:53:02;3.20;;;2.03;;
22429;SDS011;11382;48.086;11.632;2023-02-01T09:55:35;3.42;;;2.20;;
22429;SDS011;11382;48.086;11.632;2023-02-01T09:58:09;3.75;;;2.00;;
22429;SDS011;11382;48.086;11.632;2023-02-01T10:00:43;3.50;;;1.90;;
22429;SDS011;11382;48.086;11.632;2023-02-01T10:03:18;3.45;;;1.67;;
22429;SDS011;11382;48.086;11.632;2023-02-01T10:05:56;3.60;;;2.13;;
22429;SDS011;11382;48.086;11.632;2023-02-01T10:08:54;3.67;;;2.03;;
22429;SDS011;11382;48.086;11.632;2023-02-01T10:11:36;2.92;;;2.25;;
22429;SDS011;11382;48.086;11.632;2023-02-01T10:14:20;3.38;;;2.53;;
22429;SDS011;11382;48.086;11.632;2023-02-01T10:17:13;2.47;;;1.60;;
22429;SDS011;11382;48.086;11.632;2023-02-01T10:19:52;4.05;;;2.33;;
22429;SDS011;11382;48.086;11.632;2023-02-01T10:22:31;2.70;;;1.90;;
22429;SDS011;11382;48.086;11.632;2023-02-01T10:25:28;4.47;;;2.30;;
22429;SDS011;11382;48.086;11.632;2023-02-01T10:28:02;6.63;;;2.30;;
22429;SDS011;11382;48.086;11.632;2023-02-01T10:30:33;3.30;;;2.08;;
22429;SDS011;11382;48.086;11.632;2023-02-01T10:33:12;3.30;;;2.00;;
22429;SDS011;11382;48.086;11.632;2023-02-01T10:35:43;3.97;;;2.55;;
22429;SDS011;11382;48.086;11.632;2023-02-01T10:38:16;3.92;;;2.17;;
22429;SDS011;11382;48.086;11.632;2023-02-01T10:40:51;3.38;;;2.50;;
22429;SDS011;11382;48.086;11.632;2023-02-01T10:43:22;2.92;;;1.95;;
22429;SDS011;11382;48.086;11.632;2023-02-01T10:45:51;3.42;;;2.22;;
22429;SDS011;11382;48.086;11.632;2023-02-01T10:48:19;3.25;;;1.90;;
22429;SDS011;11382;48.086;11.632;2023-02-01T10:50:49;2.72;;;2.00;;
22429;SDS011;11382;48.086;11.632;2023-02-01T10:53:24;4.35;;;1.98;;
22429;SDS011;11382;48.086;11.632;2023-02-01T10:55:56;3.53;;;1.98;;
22429;SDS011;11382;48.086;11.632;2023-02-01T10:58:26;3.40;;;2.13;;
22429;SDS011;11382;48.086;11.632;2023-02-01T11:00:57;4.15;;;2.30;;
22429;SDS011;11382;48.086;11.632;2023-02-01T11:03:32;3.15;;;2.20;;
22429;SDS011;11382;48.086;11.632;2023-02-01T11:08:41;4.90;;;2.67;;
22429;SDS011;11382;48.086;11.632;2023-02-01T11:11:11;3.92;;;2.60;;
22429;SDS011;11382;48.086;11.632;2023-02-01T11:13:39;4.97;;;2.72;;
22429;SDS011;11382;48.086;11.632;2023-02-01T11:16:11;3.17;;;2.28;;
22429;SDS011;11382;48.086;11.632;2023-02-01T11:18:41;4.38;;;2.90;;
22429;SDS011;11382;48.086;11.632;2023-02-01T11:21:09;4.78;;;2.70;;
22429;SDS011;11382;48.086;11.632;2023-02-01T11:23:42;3.25;;;2.50;;
22429;SDS011;11382;48.086;11.632;2023-02-01T11:26:12;3.92;;;2.45;;
22429;SDS011;11382;48.086;11.632;2023-02-01T11:28:44;4.47;;;2.30;;
22429;SDS011;11382;48.086;11.632;2023-02-01T11:31:21;4.78;;;2.53;;
22429;SDS011;11382;48.086;11.632;2023-02-01T11:33:51;4.70;;;2.88;;
22429;SDS011;11382;48.086;11.632;2023-02-01T11:36:23;7.68;;;3.25;;
22429;SDS011;11382;48.086;11.632;2023-02-01T11:38:54;5.25;;;3.15;;
22429;SDS011;11382;48.086;11.632;2023-02-01T11:41:40;5.93;;;2.83;;
22429;SDS011;11382;48.086;11.632;2023-02-01T11:44:16;4.63;;;2.80;;
22429;SDS011;11382;48.086;11.632;2023-02-01T11:46:50;5.80;;;2.92;;
22429;SDS011;11382;48.086;11.632;2023-02-01T11:52:10;4.43;;;2.55;;
22429;SDS011;11382;48.086;11.632;2023-02-01T11:54:48;4.43;;;2.65;;
22429;SDS011;11382;48.086;11.632;2023-02-01T11:57:32;6.68;;;2.88;;
22429;SDS011;11382;48.086;11.632;2023-02-01T12:00:26;5.03;;;2.70;;
22429;SDS011;11382;48.086;11.632;2023-02-01T12:03:11;4.85;;;3.20;;
22429;SDS011;11382;48.086;11.632;2023-02-01T12:05:59;5.78;;;3.15;;
22429;SDS011;11382;48.086;11.632;2023-02-01T12:08:40;6.85;;;3.33;;
22429;SDS011;11382;48.086;11.632;2023-02-01T12:11:33;3.47;;;2.83;;
22429;SDS011;11382;48.086;11.632;2023-02-01T12:14:14;4.82;;;2.95;;
22429;SDS011;11382;48.086;11.632;2023-02-01T12:16:59;4.75;;;2.50;;
22429;SDS011;11382;48.086;11.632;2023-02-01T12:19:47;5.15;;;2.70;;
22429;SDS011;11382;48.086;11.632;2023-02-01T12:22:32;7.20;;;3.25;;
22429;SDS011;11382;48.086;11.632;2023-02-01T12:25:14;5.05;;;3.13;;
22429;SDS011;11382;48.086;11.632;2023-02-01T12:27:59;5.60;;;3.05;;
22429;SDS011;11382;48.086;11.632;2023-02-01T12:30:44;5.53;;;3.45;;
22429;SDS011;11382;48.086;11.632;2023-02-01T12:33:34;3.83;;;2.47;;
22429;SDS011;11382;48.086;11.632;2023-02-01T12:36:14;4.82;;;3.13;;
22429;SDS011;11382;48.086;11.632;2023-02-01T12:38:51;7.18;;;3.38;;
22429;SDS011;11382;48.086;11.632;2023-02-01T12:41:27;5.57;;;3.10;;
22429;SDS011;11382;48.086;11.632;2023-02-01T12:44:17;6.50;;;2.67;;
22429;SDS011;11382;48.086;11.632;2023-02-01T12:46:54;6.88;;;3.15;;
22429;SDS011;11382;48.086;11.632;2023-02-01T12:49:28;7.10;;;3.50;;
22429;SDS011;11382;48.086;11.632;2023-02-01T12:52:04;6.47;;;3.08;;
22429;SDS011;11382;48.086;11.632;2023-02-01T12:54:38;5.65;;;2.70;;
22429;SDS011;11382;48.086;11.632;2023-02-01T12:57:13;8.48;;;2.67;;
22429;SDS011;11382;48.086;11.632;2023-02-01T12:59:46;5.78;;;2.97;;
22429;SDS011;11382;48.086;11.632;2023-02-01T13:02:24;5.53;;;2.63;;
22429;SDS011;11382;48.086;11.632;2023-02-01T13:05:01;9.00;;;3.00;;
22429;SDS011;11382;48.086;11.632;2023-02-01T13:07:41;5.15;;;2.38;;
22429;SDS011;11382;48.086;11.632;2023-02-01T13:10:14;6.03;;;2.55;;
22429;SDS011;11382;48.086;11.632;2023-02-01T13:12:48;4.10;;;2.30;;
22429;SDS011;11382;48.086;11.632;2023-02-01T13:15:21;4.47;;;2.50;;
22429;SDS011;11382;48.086;11.632;2023-02-01T13:17:54;5.50;;;2.78;;
22429;SDS011;11382;48.086;11.632;2023-02-01T13:20:28;4.32;;;2.03;;
22429;SDS011;11382;48.086;11.632;2023-02-01T13:23:02;6.72;;;2.75;;
22429;SDS011;11382;48.086;11.632;2023-02-01T13:25:37;4.10;;;2.67;;
22429;SDS011;11382;48.086;11.632;2023-02-01T13:28:14;4.82;;;2.65;;
22429;SDS011;11382;48.086;11.632;2023-02-01T13:30:51;3.63;;;2.87;;
22429;SDS011;11382;48.086;11.632;2023-02-01T13:33:36;4.40;;;2.85;;
22429;SDS011;11382;48.086;11.632;2023-02-01T13:36:26;7.72;;;3.08;;
22429;SDS011;11382;48.086;11.632;2023-02-01T13:42:12;4.95;;;2.70;;
22429;SDS011;11382;48.086;11.632;2023-02-01T13:44:44;4.30;;;3.03;;
22429;SDS011;11382;48.086;11.632;2023-02-01T13:47:18;5.63;;;2.72;;
22429;SDS011;11382;48.086;11.632;2023-02-01T13:49:51;4.45;;;2.70;;
22429;SDS011;11382;48.086;11.632;2023-02-01T13:52:24;4.90;;;2.97;;
22429;SDS011;11382;48.086;11.632;2023-02-01T13:55:02;5.65;;;2.92;;
22429;SDS011;11382;48.086;11.632;2023-02-01T13:57:42;4.30;;;2.60;;
22429;SDS011;11382;48.086;11.632;2023-02-01T14:00:23;3.63;;;2.08;;
22429;SDS011;11382;48.086;11.632;2023-02-01T14:03:01;6.07;;;2.35;;
22429;SDS011;11382;48.086;11.632;2023-02-01T14:06:01;3.97;;;2.42;;
22429;SDS011;11382;48.086;11.632;2023-02-01T14:08:42;5.00;;;2.33;;
22429;SDS011;11382;48.086;11.632;2023-02-01T14:11:36;4.57;;;2.58;;
22429;SDS011;11382;48.086;11.632;2023-02-01T14:14:13;5.65;;;2.55;;
22429;SDS011;11382;48.086;11.632;2023-02-01T14:23:14;3.72;;;2.40;;
22429;SDS011;11382;48.086;11.632;2023-02-01T14:25:44;4.85;;;2.50;;
22429;SDS011;11382;48.086;11.632;2023-02-01T14:28:22;5.97;;;2.47;;
22429;SDS011;11382;48.086;11.632;2023-02-01T14:30:53;4.47;;;2.42;;
22429;SDS011;11382;48.086;11.632;2023-02-01T14:33:23;4.30;;;2.90;;
22429;SDS011;11382;48.086;11.632;2023-02-01T14:36:03;3.65;;;2.30;;
22429;SDS011;11382;48.086;11.632;2023-02-01T14:38:35;8.02;;;2.72;;
22429;SDS011;11382;48.086;11.632;2023-02-01T14:41:12;4.30;;;2.38;;
22429;SDS011;11382;48.086;11.632;2023-02-01T14:50:09;4.93;;;3.08;;
22429;SDS011;11382;48.086;11.632;2023-02-01T14:53:10;4.88;;;2.40;;
22429;SDS011;11382;48.086;11.632;2023-02-01T14:55:47;7.63;;;2.30;;
22429;SDS011;11382;48.086;11.632;2023-02-01T14:58:23;4.47;;;2.25;;
22429;SDS011;11382;48.086;11.632;2023-02-01T15:01:00;5.45;;;2.45;;
22429;SDS011;11382;48.086;11.632;2023-02-01T15:03:36;6.55;;;2.10;;
22429;SDS011;11382;48.086;11.632;2023-02-01T15:09:00;6.40;;;3.10;;
22429;SDS011;11382;48.086;11.632;2023-02-01T15:11:30;4.97;;;2.85;;
22429;SDS011;11382;48.086;11.632;2023-02-01T15:13:58;4.72;;;2.58;;
22429;SDS011;11382;48.086;11.632;2023-02-01T15:16:26;4.00;;;2.38;;
22429;SDS011;11382;48.086;11.632;2023-02-01T15:19:13;5.70;;;2.17;;
22429;SDS011;11382;48.086;11.632;2023-02-01T15:21:43;3.92;;;2.20;;
22429;SDS011;11382;48.086;11.632;2023-02-01T15:24:13;3.75;;;1.80;;
22429;SDS011;11382;48.086;11.632;2023-02-01T15:26:42;3.85;;;1.75;;
22429;SDS011;11382;48.086;11.632;2023-02-01T15:29:10;9.25;;;2.58;;
22429;SDS011;11382;48.086;11.632;2023-02-01T15:31:40;9.02;;;2.40;;
22429;SDS011;11382;48.086;11.632;2023-02-01T15:34:12;6.20;;;2.75;;
22429;SDS011;11382;48.086;11.632;2023-02-01T15:36:40;5.20;;;2.45;;
22429;SDS011;11382;48.086;11.632;2023-02-01T15:39:27;8.15;;;2.53;;
22429;SDS011;11382;48.086;11.632;2023-02-01T15:41:58;3.95;;;2.63;;